Time;durP1;ratioP1;P1;durP2;ratioP2;P2;SDS_P1;SDS_P2;PMS_P1;PMS_P2;Temp;Humidity;BMP_temperature;BMP_pressure;BME280_temperature;BME280_humidity;BME280_pressure;Samples;Min_cycle;Max_cycle;Signal;HPM_P1;HPM_P2
2022/02/27 00:01:29;;;;;;;11.60;5.10;;;;;;;1.31;100.00;102016.00;5000434;28;20049;-75
2022/02/27 00:04:13;;;;;;;10.40;4.88;;;;;;;1.35;100.00;102009.75;5015065;28;20084;-75
2022/02/27 00:06:56;;;;;;;10.00;5.53;;;;;;;1.31;100.00;102012.50;5013857;28;20053;-75
2022/02/27 00:09:40;;;;;;;14.63;5.15;;;;;;;1.29;100.00;102009.94;5015052;28;20053;-75
2022/02/27 00:12:24;;;;;;;;;;;;;;;1.30;100.00;102013.41;5015569;28;20053;-75
2022/02/27 00:15:08;;;;;;;11.38;4.55;;;;;;;1.33;100.00;102010.69;5000336;28;19936;-75
2022/02/27 00:17:52;;;;;;;14.40;5.07;;;;;;;1.33;100.00;102003.69;5015233;28;20056;-74
2022/02/27 00:20:36;;;;;;;12.93;5.40;;;;;;;1.32;100.00;102009.84;5013896;28;20072;-75
2022/02/27 00:23:20;;;;;;;8.75;5.10;;;;;;;1.27;100.00;102016.16;5013496;28;20095;-75
2022/02/27 00:26:04;;;;;;;;;;;;;;;1.26;100.00;102009.16;5014192;28;20389;-75
2022/02/27 00:28:48;;;;;;;13.75;3.63;;;;;;;1.21;100.00;102006.69;5015026;28;20325;-75
2022/02/27 00:31:32;;;;;;;12.18;4.78;;;;;;;1.23;100.00;102004.84;5013682;28;20049;-75
2022/02/27 00:34:16;;;;;;;14.07;5.15;;;;;;;1.21;100.00;102006.69;5013370;28;20508;-75
2022/02/27 00:37:00;;;;;;;15.98;5.32;;;;;;;1.10;100.00;102002.63;5014590;28;20052;-75
2022/02/27 00:39:43;;;;;;;9.52;4.88;;;;;;;1.03;100.00;102001.94;5014416;28;20057;-75
2022/02/27 00:42:27;;;;;;;;;;;;;;;1.00;100.00;102007.28;5013732;28;20049;-75
2022/02/27 00:45:11;;;;;;;9.00;4.35;;;;;;;0.94;100.00;101999.56;5013499;28;19920;-75
2022/02/27 00:47:55;;;;;;;17.65;4.53;;;;;;;0.90;100.00;101999.69;5013137;28;20133;-75
2022/02/27 00:50:39;;;;;;;;;;;;;;;0.80;100.00;101996.47;5014775;28;20045;-75
2022/02/27 00:53:23;;;;;;;11.90;4.20;;;;;;;0.77;100.00;101999.19;5013232;28;20304;-75
2022/02/27 00:56:07;;;;;;;;;;;;;;;0.75;100.00;102000.94;5013421;28;20460;-74
2022/02/27 00:58:51;;;;;;;10.52;5.22;;;;;;;0.68;100.00;101998.53;5013237;28;19920;-75
2022/02/27 01:01:35;;;;;;;14.63;5.22;;;;;;;0.66;100.00;102006.44;5013165;28;20416;-75
2022/02/27 01:04:19;;;;;;;13.50;4.78;;;;;;;0.65;100.00;102004.72;5013675;28;20056;-75
2022/02/27 01:07:03;;;;;;;14.35;5.20;;;;;;;0.71;100.00;102001.94;5014054;28;20513;-75
2022/02/27 01:09:47;;;;;;;12.80;5.15;;;;;;;0.76;100.00;101997.44;5012826;28;20052;-75
2022/02/27 01:12:31;;;;;;;;;;;;;;;0.72;100.00;101995.78;5014276;28;20107;-74
2022/02/27 01:15:17;;;;;;;12.65;4.95;;;;;;;0.72;100.00;101995.78;4998778;28;19963;-75
2022/02/27 01:18:01;;;;;;;14.00;5.30;;;;;;;0.65;100.00;101998.63;5014060;28;20044;-75
2022/02/27 01:20:44;;;;;;;;;;;;;;;0.72;100.00;101989.72;5013228;28;20140;-75
2022/02/27 01:23:28;;;;;;;12.93;5.03;;;;;;;0.68;100.00;101991.53;5012462;28;19939;-75
2022/02/27 01:26:12;;;;;;;;;;;;;;;0.81;100.00;101992.06;5014396;28;20120;-74
2022/02/27 01:28:56;;;;;;;6.97;4.70;;;;;;;0.69;100.00;101984.50;5012417;28;19960;-75
2022/02/27 01:31:40;;;;;;;11.13;4.72;;;;;;;0.61;100.00;101982.09;4998702;28;20414;-75
2022/02/27 01:34:24;;;;;;;13.32;5.10;;;;;;;0.54;100.00;101988.41;5013179;28;20052;-75
2022/02/27 01:37:08;;;;;;;14.95;4.43;;;;;;;0.48;100.00;101991.22;5012278;28;20473;-75
2022/02/27 01:39:52;;;;;;;10.48;4.63;;;;;;;0.44;100.00;101984.28;5012257;28;20091;-75
2022/02/27 01:42:36;;;;;;;;;;;;;;;0.40;100.00;101987.91;5012881;28;20414;-75
2022/02/27 01:45:20;;;;;;;10.68;4.63;;;;;;;0.33;100.00;101981.09;5012275;28;20293;-75
2022/02/27 01:48:04;;;;;;;12.70;4.90;;;;;;;0.31;100.00;101985.53;5012198;28;20525;-75
2022/02/27 01:50:47;;;;;;;;;;;;;;;0.26;100.00;101982.16;5013118;28;20487;-75
2022/02/27 01:53:33;;;;;;;13.13;5.20;;;;;;;0.22;100.00;101977.03;5013294;28;20026;-74
2022/02/27 01:56:17;;;;;;;11.95;4.32;;;;;;;0.24;100.00;101976.06;5011967;28;20529;-75
2022/02/27 01:59:01;;;;;;;11.02;4.00;;;;;;;0.18;100.00;101981.50;4998395;28;20052;-75
2022/02/27 02:01:45;;;;;;;;;;;;;;;0.26;100.00;101978.66;5012296;28;20421;-75
2022/02/27 02:04:29;;;;;;;9.60;4.68;;;;;;;0.21;100.00;101976.16;5012787;28;19924;-75
2022/02/27 02:07:13;;;;;;;10.90;5.53;;;;;;;0.20;100.00;101976.19;5012355;28;20451;-75
2022/02/27 02:09:56;;;;;;;;;;;;;;;0.25;100.00;101967.28;5012443;28;20052;-75
2022/02/27 02:12:42;;;;;;;11.43;4.60;;;;;;;0.19;100.00;101970.09;5011949;28;19968;-75
2022/02/27 02:15:26;;;;;;;10.98;4.57;;;;;;;0.19;100.00;101972.72;4997834;28;20052;-75
2022/02/27 02:18:10;;;;;;;12.85;4.60;;;;;;;0.16;100.00;101967.56;5012828;28;20161;-74
2022/02/27 02:20:54;;;;;;;13.07;4.68;;;;;;;0.13;100.00;101962.38;5012162;28;20076;-74
2022/02/27 02:23:38;;;;;;;12.18;4.72;;;;;;;0.10;100.00;101957.22;4997677;28;20417;-76
2022/02/27 02:26:22;;;;;;;;;;;;;;;0.08;100.00;101958.13;5013328;28;20048;-75
2022/02/27 02:29:08;;;;;;;16.02;4.70;;;;;;;0.03;100.00;101960.88;4998080;28;19919;-75
2022/02/27 02:31:54;;;;;;;11.63;4.43;;;;;;;0.02;100.00;101953.06;5011620;28;20048;-75
2022/02/27 02:34:38;;;;;;;11.75;3.97;;;;;;;0.01;100.00;101952.19;5012585;28;20573;-76
2022/02/27 02:37:21;;;;;;;12.25;4.13;;;;;;;-0.03;100.00;101961.03;5011831;28;20508;-75
2022/02/27 02:40:06;;;;;;;16.35;4.90;;;;;;;-0.01;100.00;101955.75;5012661;28;20095;-75
2022/02/27 02:42:50;;;;;;;17.05;5.07;;;;;;;-0.06;100.00;101961.09;5011567;28;20053;-75
2022/02/27 02:45:34;;;;;;;;;;;;;;;-0.08;100.00;101955.03;5013460;28;20406;-75
2022/02/27 02:48:18;;;;;;;15.98;4.97;;;;;;;-0.11;100.00;101946.38;5011609;28;19924;-75
2022/02/27 02:51:01;;;;;;;14.05;4.85;;;;;;;-0.17;100.00;101950.91;5011703;28;20049;-75
2022/02/27 02:53:45;;;;;;;;;;;;;;;-0.17;100.00;101945.66;5011875;28;20080;-75
2022/02/27 02:56:30;;;;;;;8.32;4.57;;;;;;;-0.20;100.00;101945.75;5011519;28;19920;-75
2022/02/27 02:59:14;;;;;;;12.55;4.22;;;;;;;-0.21;100.00;101944.88;5011649;28;20472;-75
2022/02/27 03:01:58;;;;;;;13.52;4.82;;;;;;;-0.23;100.00;101940.59;5013602;28;20143;-72
2022/02/27 03:04:42;;;;;;;11.88;4.82;;;;;;;-0.24;100.00;101942.34;5001350;28;20095;-75
2022/02/27 03:07:26;;;;;;;;;;;;;;;-0.25;100.00;101942.38;5015765;28;20092;-75
2022/02/27 03:10:10;;;;;;;13.05;4.57;;;;;;;-0.29;100.00;101938.97;5015019;28;20416;-75
2022/02/27 03:12:54;;;;;;;12.38;4.53;;;;;;;-0.34;100.00;101940.81;5016139;28;20037;-75
2022/02/27 03:15:38;;;;;;;7.05;4.18;;;;;;;-0.35;100.00;101939.09;5015080;28;20104;-75
2022/02/27 03:18:22;;;;;;;7.28;4.43;;;;;;;-0.38;100.00;101940.94;5014883;28;20056;-75
2022/02/27 03:21:06;;;;;;;;;;;;;;;-0.36;100.00;101933.88;5015484;28;20505;-75
2022/02/27 03:23:52;;;;;;;11.05;5.18;;;;;;;-0.42;100.00;101934.91;5014718;28;20335;-75
2022/02/27 03:26:36;;;;;;;11.60;4.80;;;;;;;-0.43;100.00;101932.34;5014935;28;20497;-75
2022/02/27 03:29:20;;;;;;;13.65;5.00;;;;;;;-0.41;100.00;101938.38;5015836;28;20110;-75
2022/02/27 03:32:04;;;;;;;;;;;;;;;-0.44;100.00;101938.47;5016443;28;20048;-74
2022/02/27 03:34:48;;;;;;;14.40;6.25;;;;;;;-0.45;100.00;101937.59;5015559;28;19924;-75
2022/02/27 03:37:32;;;;;;;;;;;;;;;-0.50;100.00;101941.22;5001083;28;20370;-75
2022/02/27 03:40:20;;;;;;;9.32;4.72;;;;;;;-0.53;100.00;101936.06;5014785;28;20341;-75
2022/02/27 03:43:04;;;;;;;12.60;4.53;;;;;;;-0.57;100.00;101939.63;5014409;28;20057;-75
2022/02/27 03:45:48;;;;;;;11.15;4.65;;;;;;;-0.59;100.00;101936.19;5014584;28;20085;-75
2022/02/27 03:48:32;;;;;;;11.77;4.68;;;;;;;-0.61;100.00;101948.47;5014234;28;20056;-75
2022/02/27 03:51:16;;;;;;;;;;;;;;;-0.62;100.00;101946.75;5015926;28;20501;-75
2022/02/27 03:54:01;;;;;;;14.05;5.13;;;;;;;-0.66;100.00;101934.63;5014323;28;20008;-75
2022/02/27 03:56:45;;;;;;;11.73;5.05;;;;;;;-0.64;100.00;101943.28;5014285;28;20517;-75
2022/02/27 03:59:29;;;;;;;10.35;4.95;;;;;;;-0.63;100.00;101945.03;5014072;28;20115;-75
2022/02/27 04:02:13;;;;;;;11.73;4.25;;;;;;;-0.64;100.00;101938.06;5015435;28;20161;-76
2022/02/27 04:04:56;;;;;;;12.88;4.88;;;;;;;-0.60;100.00;101935.34;5014080;28;20049;-75
2022/02/27 04:07:41;;;;;;;;;;;;;;;-0.64;100.00;101943.28;5014585;28;20057;-75
2022/02/27 04:10:25;;;;;;;12.00;4.47;;;;;;;-0.62;100.00;101936.25;5014112;28;20445;-75
2022/02/27 04:13:09;;;;;;;;;;;;;;;-0.66;100.00;101934.63;5013723;28;20048;-75
2022/02/27 04:15:53;;;;;;;13.40;5.25;;;;;;;-0.69;100.00;101934.66;5014835;28;20024;-76
2022/02/27 04:18:38;;;;;;;10.20;4.28;;;;;;;-0.66;100.00;101935.47;5013982;28;20199;-75
2022/02/27 04:21:22;;;;;;;13.77;4.70;;;;;;;-0.63;100.00;101934.53;5014869;28;20100;-75
2022/02/27 04:24:06;;;;;;;11.48;4.38;;;;;;;-0.57;100.00;101924.78;5013432;28;20049;-75
2022/02/27 04:26:51;;;;;;;;;;;;;;;-0.52;100.00;101922.06;5015177;28;20056;-75
2022/02/27 04:29:35;;;;;;;10.18;4.20;;;;;;;-0.57;100.00;101942.25;5014938;28;20004;-75
2022/02/27 04:32:19;;;;;;;;;;;;;;;-0.49;100.00;101935.06;5014901;28;20152;-75
2022/02/27 04:35:03;;;;;;;10.23;4.10;;;;;;;-0.58;100.00;101937.91;4999646;28;19920;-75
2022/02/27 04:37:47;;;;;;;12.18;4.47;;;;;;;-0.60;100.00;101934.47;5013693;28;20095;-74
2022/02/27 04:40:33;;;;;;;;;;;;;;;-0.64;100.00;101932.81;5014210;28;20513;-75
2022/02/27 04:43:17;;;;;;;10.95;4.38;;;;;;;-0.63;100.00;101939.78;5014129;28;20329;-75
2022/02/27 04:46:02;;;;;;;;;;;;;;;-0.64;100.00;101935.44;5000033;28;20428;-75
2022/02/27 04:48:46;;;;;;;10.48;4.57;;;;;;;-0.68;100.00;101941.63;5013397;28;19976;-75
2022/02/27 04:51:29;;;;;;;;;;;;;;;-0.66;100.00;101940.69;5014901;28;20044;-75
2022/02/27 04:54:13;;;;;;;8.02;4.35;;;;;;;-0.69;100.00;101935.53;5013112;28;20011;-75
2022/02/27 04:56:57;;;;;;;9.82;4.80;;;;;;;-0.73;100.00;101933.03;5014342;28;20049;-75
2022/02/27 04:59:41;;;;;;;11.02;5.10;;;;;;;-0.72;100.00;101934.75;5014517;28;20394;-74
2022/02/27 05:02:25;;;;;;;13.65;5.25;;;;;;;-0.72;100.00;101934.75;5013374;28;20056;-75
2022/02/27 05:05:09;;;;;;;;;;;;;;;-0.66;100.00;101937.25;5014641;28;20123;-75
2022/02/27 05:07:53;;;;;;;13.65;5.38;;;;;;;-0.65;100.00;101936.34;5014088;28;19976;-73
2022/02/27 05:10:37;;;;;;;;;;;;;;;-0.66;100.00;101935.47;5014484;28;20048;-75
2022/02/27 05:13:21;;;;;;;;;;;;;;;-0.66;100.00;101939.84;5014723;28;20052;-74
2022/02/27 05:16:05;;;;;;;15.05;5.40;;;;;;;-0.55;100.00;101945.72;5014267;28;20381;-75
2022/02/27 05:18:49;;;;;;;14.52;5.97;;;;;;;-0.53;100.00;101946.53;5013169;28;20048;-75
2022/02/27 05:21:33;;;;;;;;;;;;;;;-0.53;100.00;101934.28;5013311;28;20548;-75
2022/02/27 05:24:17;;;;;;;17.70;5.13;;;;;;;-0.52;100.00;101940.41;5013742;28;20365;-75
2022/02/27 05:27:01;;;;;;;11.20;4.97;;;;;;;-0.49;100.00;101930.72;5011704;28;20045;-75
2022/02/27 05:29:45;;;;;;;;;;;;;;;-0.50;100.00;101942.09;5013105;28;20069;-75
2022/02/27 05:32:29;;;;;;;17.73;6.00;;;;;;;-0.54;100.00;101943.03;4998463;28;19940;-75
2022/02/27 05:35:16;;;;;;;;;;;;;;;-0.51;100.00;101939.50;5026622;23;20087;-70
2022/02/27 05:38:00;;;;;;;9.82;4.80;;;;;;;-0.53;100.00;101936.91;5014111;28;19991;-72
2022/02/27 05:40:44;;;;;;;;;;;;;;;-0.53;100.00;101943.91;5013975;28;20096;-73
2022/02/27 05:43:28;;;;;;;11.60;5.30;;;;;;;-0.57;100.00;101947.47;5012468;28;19993;-73
2022/02/27 05:46:12;;;;;;;18.48;6.07;;;;;;;-0.58;100.00;101948.38;5013408;28;20057;-73
2022/02/27 05:48:55;;;;;;;;;;;;;;;-0.59;100.00;101951.91;5013593;28;20104;-73
2022/02/27 05:51:40;;;;;;;17.85;5.28;;;;;;;-0.60;100.00;101965.91;5013081;28;19925;-72
2022/02/27 05:54:24;;;;;;;10.48;5.68;;;;;;;-0.55;100.00;101962.28;5012214;28;20044;-73
2022/02/27 05:57:08;;;;;;;12.05;5.45;;;;;;;-0.51;100.00;101965.69;4998443;28;20512;-72
2022/02/27 05:59:52;;;;;;;;;;;;;;;-0.53;100.00;101962.25;5012636;28;20056;-73
2022/02/27 06:02:36;;;;;;;17.02;5.38;;;;;;;-0.52;100.00;101971.84;5013205;28;19959;-72
2022/02/27 06:05:20;;;;;;;;;;;;;;;-0.53;100.00;101972.72;5013265;28;20529;-72
2022/02/27 06:08:04;;;;;;;14.85;5.47;;;;;;;-0.51;100.00;101970.94;5012955;28;19995;-72
2022/02/27 06:10:48;;;;;;;15.73;4.90;;;;;;;-0.51;100.00;101970.94;5013090;28;20053;-72
2022/02/27 06:13:32;;;;;;;;;;;;;;;-0.52;100.00;101975.28;5012491;28;20088;-73
2022/02/27 06:16:16;;;;;;;13.02;5.50;;;;;;;-0.37;100.00;101974.97;4997853;28;19955;-72
2022/02/27 06:19:00;;;;;;;14.73;6.32;;;;;;;-0.46;100.00;101984.78;5012815;28;20096;-73
2022/02/27 06:21:43;;;;;;;14.70;5.80;;;;;;;-0.47;100.00;101983.06;5013300;28;20111;-73
2022/02/27 06:24:28;;;;;;;;;;;;;;;-0.46;100.00;101980.41;5013225;28;20184;-73
2022/02/27 06:27:12;;;;;;;15.38;4.60;;;;;;;-0.49;100.00;101987.47;5012725;28;20027;-72
2022/02/27 06:29:56;;;;;;;;;;;;;;;-0.46;100.00;101985.66;5013404;28;20053;-73
2022/02/27 06:32:40;;;;;;;18.20;6.88;;;;;;;-0.45;100.00;101981.28;5011855;28;19975;-74
2022/02/27 06:35:24;;;;;;;23.73;8.65;;;;;;;-0.49;100.00;101990.97;5011848;28;20065;-72
2022/02/27 06:38:08;;;;;;;19.35;7.47;;;;;;;-0.46;100.00;101990.00;5015918;28;20052;-70
2022/02/27 06:40:52;;;;;;;;;;;;;;;-0.47;100.00;101993.53;5019600;28;20069;-71
2022/02/27 06:43:37;;;;;;;16.10;7.65;;;;;;;-0.49;100.00;102000.56;5016664;28;19971;-73
2022/02/27 06:46:21;;;;;;;13.23;5.88;;;;;;;-0.48;100.00;102003.16;5016781;28;20052;-73
2022/02/27 06:49:05;;;;;;;17.15;7.07;;;;;;;-0.45;100.00;102005.72;5016721;28;20573;-73
2022/02/27 06:51:49;;;;;;;;;;;;;;;-0.45;100.00;102008.34;5002192;28;20179;-72
2022/02/27 06:54:33;;;;;;;21.95;6.97;;;;;;;-0.40;100.00;102005.63;5016574;28;20070;-73
2022/02/27 06:57:17;;;;;;;;;;;;;;;-0.38;100.00;102009.06;5016989;28;20121;-72
2022/02/27 07:00:01;;;;;;;15.95;7.15;;;;;;;-0.31;100.00;102010.66;5001443;28;19921;-72
2022/02/27 07:02:46;;;;;;;17.55;7.28;;;;;;;-0.23;100.00;102013.97;5015374;28;20092;-73
2022/02/27 07:05:29;;;;;;;20.85;7.57;;;;;;;-0.20;100.00;102009.53;5015074;28;20203;-73
2022/02/27 07:08:13;;;;;;;;;;;;;;;-0.12;100.00;102006.72;5017035;28;20397;-71
2022/02/27 07:11:02;;;;;;;11.57;4.97;;;;;;;-0.12;100.00;102006.72;5016346;28;19921;-74
2022/02/27 07:13:47;;;;;;;20.90;7.07;;;;;;;-0.06;100.00;102008.28;5016436;28;20125;-70
2022/02/27 07:16:31;;;;;;;12.27;6.13;;;;;;;0.03;100.00;102012.47;5016208;28;20096;-73
2022/02/27 07:19:16;;;;;;;;;;;;;;;0.12;100.00;102020.97;5001691;28;20056;-71
2022/02/27 07:22:00;;;;;;;15.45;6.43;;;;;;;0.22;100.00;102009.34;5015074;28;19984;-72
2022/02/27 07:24:44;;;;;;;12.98;6.07;;;;;;;0.32;100.00;102015.25;5014840;28;20089;-72
2022/02/27 07:27:27;;;;;;;17.40;6.53;;;;;;;0.41;100.00;102015.88;5016053;28;20129;-71
2022/02/27 07:30:12;;;;;;;13.10;5.88;;;;;;;0.54;100.00;102014.66;5015980;28;20127;-71
2022/02/27 07:32:56;;;;;;;14.00;6.68;;;;;;;0.63;100.00;102017.03;5014680;28;20199;-71
2022/02/27 07:35:40;;;;;;;17.73;6.28;;;;;;;0.71;100.00;102025.56;5015658;28;20525;-73
2022/02/27 07:38:24;;;;;;;;;;;;;;;0.86;100.00;102019.91;5016228;28;20096;-73
2022/02/27 07:41:08;;;;;;;14.00;6.68;;;;;;;0.98;100.00;102021.34;5016031;28;19936;-72
2022/02/27 07:43:51;;;;;;;;;;;;;;;1.26;100.00;102019.69;5015809;28;20053;-73
2022/02/27 07:46:35;;;;;;;12.30;6.25;;;;;;;1.54;100.00;102021.44;5015398;28;20005;-73
2022/02/27 07:49:20;;;;;;;14.45;5.47;;;;;;;1.60;100.00;102026.53;5013491;28;20104;-73
2022/02/27 07:52:04;;;;;;;17.95;6.65;;;;;;;1.70;100.00;102033.25;5015456;28;20069;-72
2022/02/27 07:54:48;;;;;;;15.57;5.93;;;;;;;1.72;100.00;102027.91;5000752;28;20048;-73
2022/02/27 07:57:32;;;;;;;19.80;7.32;;;;;;;1.81;100.00;102028.50;5014476;28;20045;-72
2022/02/27 08:00:16;;;;;;;;;;;;;;;1.91;100.00;102031.72;4986928;28;20056;-71
2022/02/27 08:03:00;;;;;;;16.47;5.77;;;;;;;1.95;100.00;102038.63;5014300;28;19925;-73
2022/02/27 08:05:44;;;;;;;;;;;;;;;2.09;100.00;102037.25;5000996;28;20529;-70
2022/02/27 08:08:28;;;;;;;10.80;5.63;;;;;;;2.33;100.00;102032.97;5014290;28;19988;-71
2022/02/27 08:11:12;;;;;;;;;;;;;;;2.41;100.00;102034.47;5000754;28;20194;-71
2022/02/27 08:13:57;;;;;;;20.23;6.35;;;;;;;2.46;100.00;102026.41;5015208;28;19921;-71
2022/02/27 08:16:41;;;;;;;12.80;5.85;;;;;;;2.58;100.00;102038.25;5014861;28;20477;-71
2022/02/27 08:19:25;;;;;;;13.48;6.70;;;;;;;2.75;100.00;102032.41;5000258;28;20088;-73
2022/02/27 08:22:09;;;;;;;15.80;5.90;;;;;;;2.83;100.00;102031.22;5014912;28;20085;-72
2022/02/27 08:24:53;;;;;;;13.05;6.25;;;;;;;3.10;100.00;102037.28;5013898;28;20383;-71
2022/02/27 08:27:37;;;;;;;13.48;5.65;;;;;;;3.20;100.00;102028.13;5014817;28;20056;-73
2022/02/27 08:30:21;;;;;;;13.20;5.70;;;;;;;3.32;100.00;102032.97;5013996;28;20111;-71
2022/02/27 08:33:06;;;;;;;14.05;6.63;;;;;;;3.51;100.00;102023.44;5014717;28;20048;-71
2022/02/27 08:35:49;;;;;;;14.45;6.20;;;;;;;3.67;100.00;102028.09;5013470;28;20061;-72
2022/02/27 08:38:33;;;;;;;;;;;;;;;3.77;100.00;102028.59;5014853;28;20061;-73
2022/02/27 08:41:17;;;;;;;12.05;5.53;;;;;;;3.85;100.00;102031.81;5014417;28;19983;-73
2022/02/27 08:44:01;;;;;;;10.82;6.00;;;;;;;3.92;100.00;102026.22;5014437;28;20195;-73
2022/02/27 08:46:45;;;;;;;11.30;5.70;;;;;;;4.06;100.00;102030.97;5014847;28;20052;-73
2022/02/27 08:49:29;;;;;;;14.70;5.93;;;;;;;4.19;100.00;102025.16;5013479;28;20048;-73
2022/02/27 08:52:13;;;;;;;11.75;6.15;;;;;;;4.32;100.00;102030.75;4999541;28;20457;-72
2022/02/27 08:54:57;;;;;;;10.40;5.40;;;;;;;4.46;100.00;102028.44;5014176;28;20199;-73
2022/02/27 08:57:42;;;;;;;11.20;5.43;;;;;;;4.54;100.00;102028.97;5014340;28;20052;-71
2022/02/27 09:00:26;;;;;;;12.63;5.93;;;;;;;4.68;100.00;102018.69;5012963;28;20049;-71
2022/02/27 09:03:10;;;;;;;10.98;5.60;;;;;;;4.79;100.00;102017.28;5013149;28;20049;-71
2022/02/27 09:05:55;;;;;;;10.20;5.35;;;;;;;4.93;100.00;102021.06;5013111;28;20052;-73
2022/02/27 09:08:41;;;;;;;9.00;5.53;;;;;;;5.19;100.00;102018.13;5014203;28;20160;-74
2022/02/27 09:11:25;;;;;;;8.98;5.25;;;;;;;5.32;100.00;102023.75;5013088;28;20091;-72
2022/02/27 09:14:09;;;;;;;12.23;5.47;;;;;;;5.50;100.00;102023.75;5013248;28;20076;-73
2022/02/27 09:16:53;;;;;;;13.23;5.72;;;;;;;5.68;100.00;102008.81;5012871;28;20052;-71
2022/02/27 09:19:37;;;;;;;11.38;5.35;;;;;;;6.07;100.00;102013.09;5012929;28;20056;-73
2022/02/27 09:22:21;;;;;;;7.88;4.93;;;;;;;6.29;98.18;102011.16;5013899;28;20111;-72
2022/02/27 09:25:05;;;;;;;11.00;4.72;;;;;;;6.87;96.18;102011.72;5013740;28;20173;-73
2022/02/27 09:27:49;;;;;;;7.65;4.13;;;;;;;7.86;87.18;102009.81;5013782;28;20053;-73
2022/02/27 09:30:33;;;;;;;7.03;4.85;;;;;;;-139.48;100.00;61774.03;4998891;28;20103;-73
2022/02/27 09:33:17;;;;;;;10.55;4.28;;;;;;;-139.48;100.00;61774.03;5013726;28;20064;-72
2022/02/27 09:36:01;;;;;;;11.60;4.10;;;;;;;-139.48;100.00;61774.03;4998674;28;20437;-73
2022/02/27 09:38:45;;;;;;;6.47;3.67;;;;;;;-139.48;100.00;61774.03;5013373;28;20492;-72
2022/02/27 09:41:29;;;;;;;8.23;4.00;;;;;;;-139.48;100.00;61774.03;5012590;28;20425;-73
2022/02/27 09:44:13;;;;;;;6.57;4.07;;;;;;;-139.48;100.00;61774.03;5012396;28;20049;-73
2022/02/27 09:46:57;;;;;;;7.43;3.72;;;;;;;-139.48;100.00;61774.03;5013308;28;20072;-73
2022/02/27 09:49:45;;;;;;;6.28;4.05;;;;;;;-139.48;100.00;61774.03;5012443;28;20048;-72
2022/02/27 09:52:29;;;;;;;7.90;3.85;;;;;;;-139.48;100.00;61774.03;5012387;28;20072;-73
2022/02/27 09:55:14;;;;;;;7.82;4.30;;;;;;;-139.48;100.00;61774.03;5013148;28;20127;-70
2022/02/27 09:57:58;;;;;;;7.88;4.10;;;;;;;-139.48;100.00;61774.03;5012614;28;20146;-73
2022/02/27 10:00:42;;;;;;;6.20;3.85;;;;;;;-139.48;100.00;61774.03;5013074;28;20084;-73
2022/02/27 10:03:28;;;;;;;8.35;4.55;;;;;;;-139.48;100.00;61774.03;5012169;28;20130;-73
2022/02/27 10:06:13;;;;;;;7.35;3.80;;;;;;;-139.48;100.00;61774.03;5011872;28;20489;-73
2022/02/27 10:08:57;;;;;;;5.70;4.10;;;;;;;-139.48;100.00;61774.03;5012013;28;20192;-74
2022/02/27 10:11:41;;;;;;;5.93;3.83;;;;;;;-139.48;100.00;61774.03;5011649;28;20132;-73
2022/02/27 10:14:27;;;;;;;8.00;4.43;;;;;;;-139.48;100.00;61774.03;4997996;28;20513;-74
2022/02/27 10:17:11;;;;;;;7.90;4.03;;;;;;;-139.48;100.00;61774.03;5013146;28;20406;-73
2022/02/27 10:19:55;;;;;;;5.32;3.75;;;;;;;-139.48;100.00;61774.03;5012324;28;20092;-72
2022/02/27 10:22:39;;;;;;;;;;;;;;;-139.48;100.00;61774.03;5012423;28;20077;-73
2022/02/27 10:25:26;;;;;;;7.68;3.75;;;;;;;-139.48;100.00;61774.03;5011675;28;19921;-72
2022/02/27 10:28:10;;;;;;;6.90;4.50;;;;;;;-139.48;100.00;61774.03;5011957;28;20049;-72
2022/02/27 10:31:08;;;;;;;6.65;4.30;;;;;;;-139.48;100.00;61774.03;5012981;28;20405;-73
2022/02/27 10:33:56;;;;;;;7.80;4.40;;;;;;;-139.48;100.00;61774.03;5011729;28;20064;-73
2022/02/27 10:37:00;;;;;;;7.30;4.43;;;;;;;-139.48;100.00;61774.03;5012856;28;20049;-71
2022/02/27 10:39:51;;;;;;;7.63;4.13;;;;;;;-139.48;100.00;61774.03;5011684;28;20068;-72
2022/02/27 10:42:35;;;;;;;6.68;4.30;;;;;;;-139.48;100.00;61774.03;5013195;28;20080;-72
2022/02/27 10:45:19;;;;;;;7.03;3.83;;;;;;;-139.48;100.00;61774.03;5011590;28;20192;-73
2022/02/27 10:48:17;;;;;;;5.25;3.72;;;;;;;-139.48;100.00;61774.03;5012778;28;20068;-71
2022/02/27 10:51:19;;;;;;;6.82;4.30;;;;;;;-139.48;100.00;61774.03;5012599;28;20072;-72
2022/02/27 10:54:03;;;;;;;5.95;3.97;;;;;;;-139.48;100.00;61774.03;5012512;28;20069;-73
2022/02/27 10:56:48;;;;;;;;;;;;;;;-139.48;100.00;61774.03;5012116;28;20060;-73
2022/02/27 10:59:32;;;;;;;5.18;3.97;;;;;;;-139.48;100.00;61774.03;5011688;28;19919;-73
2022/02/27 11:02:16;;;;;;;6.20;4.15;;;;;;;-139.48;100.00;61774.03;5012532;28;20080;-72
2022/02/27 11:05:02;;;;;;;7.63;4.15;;;;;;;-139.48;100.00;61774.03;5011442;28;20052;-70
2022/02/27 11:07:51;;;;;;;6.10;4.75;;;;;;;-139.48;100.00;61774.03;5011676;28;20127;-71
2022/02/27 11:10:37;;;;;;;6.80;3.97;;;;;;;-139.48;100.00;61774.03;5011895;28;20056;-72
2022/02/27 11:13:22;;;;;;;6.68;3.90;;;;;;;-139.48;100.00;61774.03;5011568;28;20072;-73
2022/02/27 11:16:09;;;;;;;6.68;4.72;;;;;;;-139.48;100.00;61774.03;5011534;28;20053;-71
2022/02/27 11:18:53;;;;;;;5.95;3.97;;;;;;;-139.48;100.00;61774.03;5011388;28;20081;-72
2022/02/27 11:21:37;;;;;;;7.35;4.45;;;;;;;-139.48;100.00;61774.03;5011314;28;20413;-72
2022/02/27 11:24:22;;;;;;;6.70;4.43;;;;;;;-139.48;100.00;61774.03;5014157;28;20510;-72
2022/02/27 11:27:06;;;;;;;7.60;4.13;;;;;;;-139.48;100.00;61774.03;5001203;28;20100;-72
2022/02/27 11:29:50;;;;;;;6.13;3.95;;;;;;;-139.48;100.00;61774.03;5014876;28;20133;-73
2022/02/27 11:32:34;;;;;;;;;;;;;;;-139.48;100.00;61774.03;5015420;28;20074;-73
2022/02/27 11:35:58;;;;;;;6.38;3.95;;;;;;;-139.48;100.00;61774.03;5014736;28;19972;-72
2022/02/27 11:38:42;;;;;;;6.45;4.32;;;;;;;-139.48;100.00;61774.03;4909372;29;20157;-72
2022/02/27 11:41:27;;;;;;;5.10;3.45;;;;;;;-139.48;100.00;61774.03;5015570;28;20099;-72
2022/02/27 11:44:13;;;;;;;5.00;3.30;;;;;;;-139.48;100.00;61774.03;5014338;28;20132;-73
2022/02/27 11:47:06;;;;;;;5.20;3.40;;;;;;;-139.48;100.00;61774.03;5015695;28;20092;-71
2022/02/27 11:49:50;;;;;;;5.13;3.35;;;;;;;-139.48;100.00;61774.03;5015669;28;20049;-73
2022/02/27 11:52:35;;;;;;;3.65;2.70;;;;;;;-139.48;100.00;61774.03;5014398;28;20151;-73
2022/02/27 11:55:39;;;;;;;5.50;3.05;;;;;;;-139.48;100.00;61774.03;5000401;28;20590;-72
2022/02/27 11:58:24;;;;;;;3.30;2.90;;;;;;;-139.48;100.00;61774.03;5015314;28;20512;-73
2022/02/27 12:01:09;;;;;;;5.40;2.60;;;;;;;-139.48;100.00;61774.03;5014163;28;20460;-73
2022/02/27 12:04:19;;;;;;;3.53;2.42;;;;;;;-139.48;100.00;61774.03;5015292;28;20099;-73
2022/02/27 12:07:08;;;;;;;4.25;2.72;;;;;;;-139.48;100.00;61774.03;5015134;28;20045;-73
2022/02/27 12:09:52;;;;;;;4.43;2.97;;;;;;;-139.48;100.00;61774.03;5014226;28;20409;-73
2022/02/27 12:12:42;;;;;;;5.05;3.13;;;;;;;-139.48;100.00;61774.03;5014406;28;20061;-72
2022/02/27 12:15:36;;;;;;;7.57;2.72;;;;;;;-139.48;100.00;61774.03;5013881;28;20084;-71
2022/02/27 12:18:22;;;;;;;3.70;2.60;;;;;;;-139.48;100.00;61774.03;5028931;23;20049;-73
2022/02/27 12:21:08;;;;;;;3.90;3.03;;;;;;;-139.48;100.00;61774.03;5013876;28;20053;-73
2022/02/27 12:23:51;;;;;;;3.17;2.78;;;;;;;-139.48;100.00;61774.03;5013981;28;20496;-73
2022/02/27 12:26:41;;;;;;;;;;;;;;;-139.48;100.00;61774.03;5014309;28;20096;-72
2022/02/27 12:29:43;;;;;;;4.63;2.80;;;;;;;-139.48;100.00;61774.03;5014700;28;19963;-73
2022/02/27 12:32:27;;;;;;;4.90;2.88;;;;;;;-139.48;100.00;61774.03;5013751;28;20045;-73
2022/02/27 12:35:11;;;;;;;5.50;3.00;;;;;;;-139.48;100.00;61774.03;5012967;28;20041;-72
2022/02/27 12:37:55;;;;;;;;;;;;;;;-139.48;100.00;61774.03;5013826;28;20481;-72
2022/02/27 12:40:39;;;;;;;4.97;3.63;;;;;;;-139.48;100.00;61774.03;5013881;28;19924;-72
2022/02/27 12:43:24;;;;;;;4.43;3.33;;;;;;;-139.48;100.00;61774.03;5013594;28;20053;-73
2022/02/27 12:46:07;;;;;;;;;;;;;;;-139.48;100.00;61774.03;5014004;28;20064;-73
2022/02/27 12:51:57;;;;;;;15.38;13.50;;;;;;;18.03;28.24;101840.66;5013563;28;20096;-72